LFBC 221130Z AUTO 21006KT 180V240 CAVOK 15/08 Q1033

ElémentsDécodage
LFBC Station météo située sur l'aérodrome de CAZAUX
221130Z émis le 22 du mois à 11h30 UTC
AUTO Bulletin édité par un automate
21006KT vent du 210°, 06 noeuds
180V240 vent de direction variable entre 180° et 240°
CAVOK Ceiling And Visibility OK
- Visibilité de 10 Km ou plus
- Pas de nuage au-dessous de 1500m ou au-dessous de l'altitude minimale du secteur la plus élevée (si>1500m) et absence de CB
- pas de temps présent significatif
15/08 température 15°C, point de rosée 08°C
 soit une humidité relative de 63%
Q1033 la pression au niveau de la mer (QNH) est de 1033 hPa